sensor_id;sensor_type;location;lat;lon;timestamp;P1;durP1;ratioP1;P2;durP2;ratioP2
23539;SDS011;11947;50.810;4.394;2022-10-22T00:20:56;13.80;;;4.22;;
23539;SDS011;11947;50.810;4.394;2022-10-22T00:23:28;16.40;;;5.18;;
23539;SDS011;11947;50.810;4.394;2022-10-22T00:33:44;18.95;;;5.05;;
23539;SDS011;11947;50.810;4.394;2022-10-22T00:36:17;17.45;;;4.85;;
23539;SDS011;11947;50.810;4.394;2022-10-22T00:38:53;14.75;;;4.32;;
23539;SDS011;11947;50.810;4.394;2022-10-22T00:54:09;23.08;;;4.60;;
23539;SDS011;11947;50.810;4.394;2022-10-22T00:56:40;11.85;;;4.90;;
23539;SDS011;11947;50.810;4.394;2022-10-22T01:02:26;15.95;;;4.50;;
23539;SDS011;11947;50.810;4.394;2022-10-22T01:17:58;15.73;;;4.25;;
23539;SDS011;11947;50.810;4.394;2022-10-22T01:21:16;13.07;;;4.75;;
23539;SDS011;11947;50.810;4.394;2022-10-22T01:30:28;14.57;;;3.97;;
23539;SDS011;11947;50.810;4.394;2022-10-22T01:40:23;18.17;;;4.40;;
23539;SDS011;11947;50.810;4.394;2022-10-22T01:55:04;11.55;;;3.60;;
23539;SDS011;11947;50.810;4.394;2022-10-22T01:57:58;18.48;;;4.05;;
23539;SDS011;11947;50.810;4.394;2022-10-22T02:00:29;16.55;;;3.90;;
23539;SDS011;11947;50.810;4.394;2022-10-22T02:02:57;13.38;;;3.50;;
23539;SDS011;11947;50.810;4.394;2022-10-22T02:10:28;11.88;;;3.40;;
23539;SDS011;11947;50.810;4.394;2022-10-22T02:12:57;22.17;;;3.72;;
23539;SDS011;11947;50.810;4.394;2022-10-22T02:15:25;17.42;;;3.67;;
23539;SDS011;11947;50.810;4.394;2022-10-22T02:17:54;18.30;;;3.70;;
23539;SDS011;11947;50.810;4.394;2022-10-22T02:20:29;17.77;;;3.17;;
23539;SDS011;11947;50.810;4.394;2022-10-22T02:22:59;13.23;;;3.33;;
23539;SDS011;11947;50.810;4.394;2022-10-22T02:25:32;9.98;;;3.28;;
23539;SDS011;11947;50.810;4.394;2022-10-22T02:30:47;15.55;;;3.20;;
23539;SDS011;11947;50.810;4.394;2022-10-22T02:33:21;14.77;;;3.40;;
23539;SDS011;11947;50.810;4.394;2022-10-22T02:35:57;10.93;;;2.83;;
23539;SDS011;11947;50.810;4.394;2022-10-22T02:38:25;13.82;;;3.13;;
23539;SDS011;11947;50.810;4.394;2022-10-22T02:40:52;19.08;;;3.17;;
23539;SDS011;11947;50.810;4.394;2022-10-22T02:43:22;9.00;;;2.65;;
23539;SDS011;11947;50.810;4.394;2022-10-22T02:45:49;15.77;;;3.35;;
23539;SDS011;11947;50.810;4.394;2022-10-22T02:48:15;17.38;;;3.15;;
23539;SDS011;11947;50.810;4.394;2022-10-22T02:50:41;7.95;;;2.75;;
23539;SDS011;11947;50.810;4.394;2022-10-22T02:53:07;12.05;;;2.58;;
23539;SDS011;11947;50.810;4.394;2022-10-22T02:55:33;16.98;;;2.85;;
23539;SDS011;11947;50.810;4.394;2022-10-22T05:43:42;9.35;;;1.90;;
23539;SDS011;11947;50.810;4.394;2022-10-22T05:59:29;13.85;;;2.17;;
23539;SDS011;11947;50.810;4.394;2022-10-22T06:02:56;9.80;;;1.80;;
23539;SDS011;11947;50.810;4.394;2022-10-22T06:09:18;14.60;;;2.03;;
23539;SDS011;11947;50.810;4.394;2022-10-22T06:12:03;17.65;;;2.10;;
23539;SDS011;11947;50.810;4.394;2022-10-22T06:14:53;11.85;;;2.47;;
23539;SDS011;11947;50.810;4.394;2022-10-22T06:21:17;11.45;;;1.98;;
23539;SDS011;11947;50.810;4.394;2022-10-22T06:23:45;11.13;;;2.47;;
23539;SDS011;11947;50.810;4.394;2022-10-22T06:29:02;14.27;;;2.13;;
23539;SDS011;11947;50.810;4.394;2022-10-22T06:35:32;12.15;;;2.25;;
23539;SDS011;11947;50.810;4.394;2022-10-22T06:41:44;17.10;;;2.53;;
23539;SDS011;11947;50.810;4.394;2022-10-22T06:47:57;8.98;;;2.08;;
23539;SDS011;11947;50.810;4.394;2022-10-22T06:50:24;20.00;;;2.05;;
23539;SDS011;11947;50.810;4.394;2022-10-22T06:59:38;11.45;;;1.90;;
23539;SDS011;11947;50.810;4.394;2022-10-22T07:02:07;15.52;;;2.67;;
23539;SDS011;11947;50.810;4.394;2022-10-22T07:07:40;14.15;;;2.78;;
23539;SDS011;11947;50.810;4.394;2022-10-22T07:13:49;9.93;;;2.00;;
23539;SDS011;11947;50.810;4.394;2022-10-22T07:16:29;8.93;;;2.22;;
23539;SDS011;11947;50.810;4.394;2022-10-22T07:22:34;11.35;;;1.95;;
23539;SDS011;11947;50.810;4.394;2022-10-22T07:24:59;14.02;;;2.10;;
23539;SDS011;11947;50.810;4.394;2022-10-22T08:41:25;11.38;;;2.30;;
23539;SDS011;11947;50.810;4.394;2022-10-22T09:58:40;12.07;;;1.98;;
23539;SDS011;11947;50.810;4.394;2022-10-22T10:08:46;18.75;;;2.90;;
23539;SDS011;11947;50.810;4.394;2022-10-22T10:11:59;12.27;;;2.33;;
23539;SDS011;11947;50.810;4.394;2022-10-22T13:38:17;8.18;;;2.00;;
23539;SDS011;11947;50.810;4.394;2022-10-22T13:43:12;11.45;;;1.90;;
23539;SDS011;11947;50.810;4.394;2022-10-22T13:45:46;7.53;;;1.50;;
23539;SDS011;11947;50.810;4.394;2022-10-22T13:50:52;9.43;;;1.63;;
23539;SDS011;11947;50.810;4.394;2022-10-22T13:53:19;10.65;;;2.00;;
23539;SDS011;11947;50.810;4.394;2022-10-22T13:55:56;8.52;;;1.90;;
23539;SDS011;11947;50.810;4.394;2022-10-22T14:03:53;5.75;;;1.48;;
23539;SDS011;11947;50.810;4.394;2022-10-22T14:08:58;7.82;;;1.85;;
23539;SDS011;11947;50.810;4.394;2022-10-22T14:11:35;8.15;;;1.70;;
23539;SDS011;11947;50.810;4.394;2022-10-22T14:16:44;7.30;;;1.67;;
23539;SDS011;11947;50.810;4.394;2022-10-22T14:19:23;7.28;;;1.75;;
23539;SDS011;11947;50.810;4.394;2022-10-22T14:21:55;12.80;;;1.85;;
23539;SDS011;11947;50.810;4.394;2022-10-22T14:24:21;8.20;;;1.80;;
23539;SDS011;11947;50.810;4.394;2022-10-22T14:26:52;9.50;;;1.70;;
23539;SDS011;11947;50.810;4.394;2022-10-22T14:40:13;11.82;;;1.55;;
23539;SDS011;11947;50.810;4.394;2022-10-22T14:43:06;11.98;;;1.75;;
23539;SDS011;11947;50.810;4.394;2022-10-22T15:05:13;6.85;;;1.60;;
23539;SDS011;11947;50.810;4.394;2022-10-22T15:08:13;10.32;;;1.70;;
23539;SDS011;11947;50.810;4.394;2022-10-22T15:29:12;6.40;;;1.83;;
23539;SDS011;11947;50.810;4.394;2022-10-22T16:07:00;11.00;;;2.55;;
23539;SDS011;11947;50.810;4.394;2022-10-22T16:12:01;10.15;;;2.28;;
23539;SDS011;11947;50.810;4.394;2022-10-22T16:14:39;9.70;;;2.83;;
23539;SDS011;11947;50.810;4.394;2022-10-22T16:20:41;10.02;;;2.60;;
23539;SDS011;11947;50.810;4.394;2022-10-22T16:25:54;11.13;;;2.80;;
23539;SDS011;11947;50.810;4.394;2022-10-22T16:28:23;8.57;;;2.17;;
23539;SDS011;11947;50.810;4.394;2022-10-22T16:31:45;12.02;;;2.10;;
23539;SDS011;11947;50.810;4.394;2022-10-22T16:34:52;10.18;;;2.90;;
23539;SDS011;11947;50.810;4.394;2022-10-22T16:45:48;12.77;;;3.33;;
23539;SDS011;11947;50.810;4.394;2022-10-22T16:48:22;13.85;;;3.40;;
23539;SDS011;11947;50.810;4.394;2022-10-22T16:50:52;15.13;;;3.25;;
23539;SDS011;11947;50.810;4.394;2022-10-22T16:56:24;14.52;;;3.33;;
23539;SDS011;11947;50.810;4.394;2022-10-22T16:59:04;18.75;;;3.45;;
23539;SDS011;11947;50.810;4.394;2022-10-22T17:02:03;11.02;;;4.00;;
23539;SDS011;11947;50.810;4.394;2022-10-22T17:39:53;27.63;;;7.30;;
23539;SDS011;11947;50.810;4.394;2022-10-22T17:42:19;15.27;;;5.47;;
23539;SDS011;11947;50.810;4.394;2022-10-22T17:44:45;15.20;;;5.68;;
23539;SDS011;11947;50.810;4.394;2022-10-22T17:47:10;20.38;;;6.45;;
23539;SDS011;11947;50.810;4.394;2022-10-22T17:49:45;16.05;;;5.18;;
23539;SDS011;11947;50.810;4.394;2022-10-22T17:52:14;19.52;;;5.00;;
23539;SDS011;11947;50.810;4.394;2022-10-22T17:54:51;18.10;;;5.32;;
23539;SDS011;11947;50.810;4.394;2022-10-22T17:57:20;14.68;;;5.18;;
23539;SDS011;11947;50.810;4.394;2022-10-22T17:59:45;14.30;;;5.55;;
23539;SDS011;11947;50.810;4.394;2022-10-22T18:02:22;14.50;;;5.22;;
23539;SDS011;11947;50.810;4.394;2022-10-22T18:04:58;21.45;;;5.07;;
23539;SDS011;11947;50.810;4.394;2022-10-22T18:07:27;16.05;;;5.05;;
23539;SDS011;11947;50.810;4.394;2022-10-22T18:09:53;15.73;;;5.13;;
23539;SDS011;11947;50.810;4.394;2022-10-22T18:12:21;14.70;;;5.45;;
23539;SDS011;11947;50.810;4.394;2022-10-22T18:14:47;18.83;;;6.65;;
23539;SDS011;11947;50.810;4.394;2022-10-22T18:17:14;21.88;;;7.88;;
23539;SDS011;11947;50.810;4.394;2022-10-22T18:19:40;26.13;;;9.32;;
23539;SDS011;11947;50.810;4.394;2022-10-22T18:24:41;27.58;;;8.52;;
23539;SDS011;11947;50.810;4.394;2022-10-22T18:27:06;22.83;;;8.52;;
23539;SDS011;11947;50.810;4.394;2022-10-22T18:29:32;20.38;;;9.00;;
23539;SDS011;11947;50.810;4.394;2022-10-22T18:31:58;32.05;;;9.48;;
23539;SDS011;11947;50.810;4.394;2022-10-22T18:37:31;27.42;;;9.60;;
23539;SDS011;11947;50.810;4.394;2022-10-22T18:40:08;22.70;;;9.45;;
23539;SDS011;11947;50.810;4.394;2022-10-22T18:42:35;27.10;;;8.73;;
23539;SDS011;11947;50.810;4.394;2022-10-22T18:56:20;37.47;;;13.02;;
23539;SDS011;11947;50.810;4.394;2022-10-22T18:58:52;30.88;;;13.52;;
23539;SDS011;11947;50.810;4.394;2022-10-22T19:04:28;34.50;;;11.60;;
23539;SDS011;11947;50.810;4.394;2022-10-22T19:07:04;27.80;;;11.77;;
23539;SDS011;11947;50.810;4.394;2022-10-22T19:09:38;27.50;;;10.65;;
23539;SDS011;11947;50.810;4.394;2022-10-22T19:12:15;24.92;;;10.32;;
23539;SDS011;11947;50.810;4.394;2022-10-22T19:14:45;23.45;;;10.00;;
23539;SDS011;11947;50.810;4.394;2022-10-22T19:17:27;27.98;;;9.48;;
23539;SDS011;11947;50.810;4.394;2022-10-22T19:20:16;25.67;;;9.07;;
23539;SDS011;11947;50.810;4.394;2022-10-22T19:22:48;24.35;;;8.20;;
23539;SDS011;11947;50.810;4.394;2022-10-22T19:25:25;20.88;;;7.45;;
23539;SDS011;11947;50.810;4.394;2022-10-22T19:27:53;23.25;;;7.63;;
23539;SDS011;11947;50.810;4.394;2022-10-22T19:30:18;27.73;;;7.82;;
23539;SDS011;11947;50.810;4.394;2022-10-22T19:32:45;23.40;;;7.35;;
23539;SDS011;11947;50.810;4.394;2022-10-22T19:35:15;20.90;;;7.85;;
23539;SDS011;11947;50.810;4.394;2022-10-22T19:37:44;22.52;;;8.30;;
23539;SDS011;11947;50.810;4.394;2022-10-22T19:40:16;27.50;;;8.77;;
23539;SDS011;11947;50.810;4.394;2022-10-22T19:47:17;21.17;;;8.85;;
23539;SDS011;11947;50.810;4.394;2022-10-22T19:50:08;21.55;;;8.98;;
23539;SDS011;11947;50.810;4.394;2022-10-22T19:52:34;24.05;;;8.88;;
23539;SDS011;11947;50.810;4.394;2022-10-22T19:55:00;25.15;;;9.00;;
23539;SDS011;11947;50.810;4.394;2022-10-22T19:57:35;28.65;;;8.27;;
23539;SDS011;11947;50.810;4.394;2022-10-22T20:03:24;25.35;;;8.63;;
23539;SDS011;11947;50.810;4.394;2022-10-22T20:05:57;22.52;;;8.77;;
23539;SDS011;11947;50.810;4.394;2022-10-22T20:08:23;27.27;;;8.57;;
23539;SDS011;11947;50.810;4.394;2022-10-22T20:10:49;20.65;;;8.10;;
23539;SDS011;11947;50.810;4.394;2022-10-22T20:13:15;20.45;;;8.27;;
23539;SDS011;11947;50.810;4.394;2022-10-22T20:15:42;29.50;;;9.00;;
23539;SDS011;11947;50.810;4.394;2022-10-22T20:18:07;22.27;;;8.45;;
23539;SDS011;11947;50.810;4.394;2022-10-22T20:20:35;27.38;;;8.30;;
23539;SDS011;11947;50.810;4.394;2022-10-22T20:23:07;25.70;;;9.18;;
23539;SDS011;11947;50.810;4.394;2022-10-22T20:25:33;21.30;;;8.77;;
23539;SDS011;11947;50.810;4.394;2022-10-22T20:28:00;22.48;;;8.15;;
23539;SDS011;11947;50.810;4.394;2022-10-22T20:30:26;20.45;;;7.97;;
23539;SDS011;11947;50.810;4.394;2022-10-22T20:32:54;27.58;;;9.30;;
23539;SDS011;11947;50.810;4.394;2022-10-22T20:35:30;22.98;;;8.52;;
23539;SDS011;11947;50.810;4.394;2022-10-22T20:38:06;20.23;;;8.40;;
23539;SDS011;11947;50.810;4.394;2022-10-22T20:40:37;20.55;;;8.18;;
23539;SDS011;11947;50.810;4.394;2022-10-22T20:43:04;23.88;;;8.10;;
23539;SDS011;11947;50.810;4.394;2022-10-22T20:45:34;30.52;;;11.65;;
23539;SDS011;11947;50.810;4.394;2022-10-22T21:07:50;24.33;;;8.75;;
23539;SDS011;11947;50.810;4.394;2022-10-22T21:11:34;22.83;;;7.82;;
23539;SDS011;11947;50.810;4.394;2022-10-22T21:14:07;23.73;;;7.88;;
23539;SDS011;11947;50.810;4.394;2022-10-22T21:19:48;15.95;;;6.43;;
23539;SDS011;11947;50.810;4.394;2022-10-22T21:24:53;14.90;;;6.72;;
23539;SDS011;11947;50.810;4.394;2022-10-22T21:27:53;19.15;;;6.60;;
23539;SDS011;11947;50.810;4.394;2022-10-22T21:30:43;21.60;;;7.18;;
23539;SDS011;11947;50.810;4.394;2022-10-22T21:35:35;18.55;;;6.47;;
23539;SDS011;11947;50.810;4.394;2022-10-22T21:38:36;14.57;;;6.45;;
23539;SDS011;11947;50.810;4.394;2022-10-22T21:41:07;14.57;;;5.97;;
23539;SDS011;11947;50.810;4.394;2022-10-22T21:43:35;18.35;;;6.43;;
23539;SDS011;11947;50.810;4.394;2022-10-22T21:46:10;15.30;;;5.90;;
23539;SDS011;11947;50.810;4.394;2022-10-22T21:48:45;18.13;;;6.28;;
23539;SDS011;11947;50.810;4.394;2022-10-22T21:54:47;15.82;;;7.00;;
23539;SDS011;11947;50.810;4.394;2022-10-22T21:57:14;21.67;;;7.28;;
23539;SDS011;11947;50.810;4.394;2022-10-22T21:59:47;26.25;;;7.22;;
23539;SDS011;11947;50.810;4.394;2022-10-22T22:02:12;18.77;;;6.88;;
23539;SDS011;11947;50.810;4.394;2022-10-22T22:04:39;17.60;;;6.65;;
23539;SDS011;11947;50.810;4.394;2022-10-22T22:07:08;21.10;;;6.30;;
23539;SDS011;11947;50.810;4.394;2022-10-22T22:09:33;18.25;;;6.45;;
23539;SDS011;11947;50.810;4.394;2022-10-22T22:12:00;18.55;;;6.47;;
23539;SDS011;11947;50.810;4.394;2022-10-22T22:14:25;23.15;;;6.68;;
23539;SDS011;11947;50.810;4.394;2022-10-22T22:16:54;17.73;;;6.65;;
23539;SDS011;11947;50.810;4.394;2022-10-22T22:19:22;21.77;;;6.95;;
23539;SDS011;11947;50.810;4.394;2022-10-22T22:21:47;18.63;;;6.70;;
23539;SDS011;11947;50.810;4.394;2022-10-22T22:24:19;18.55;;;6.32;;
23539;SDS011;11947;50.810;4.394;2022-10-22T22:26:53;17.50;;;5.88;;
23539;SDS011;11947;50.810;4.394;2022-10-22T22:29:19;27.42;;;6.35;;
23539;SDS011;11947;50.810;4.394;2022-10-22T22:31:53;25.85;;;5.57;;
23539;SDS011;11947;50.810;4.394;2022-10-22T22:34:21;19.73;;;6.13;;
23539;SDS011;11947;50.810;4.394;2022-10-22T22:36:52;21.77;;;6.47;;
23539;SDS011;11947;50.810;4.394;2022-10-22T22:39:21;16.02;;;5.60;;
23539;SDS011;11947;50.810;4.394;2022-10-22T22:41:51;18.58;;;5.40;;
23539;SDS011;11947;50.810;4.394;2022-10-22T22:44:22;22.52;;;5.68;;
23539;SDS011;11947;50.810;4.394;2022-10-22T22:46:47;12.00;;;4.82;;
23539;SDS011;11947;50.810;4.394;2022-10-22T22:49:16;19.55;;;5.18;;
23539;SDS011;11947;50.810;4.394;2022-10-22T22:51:55;16.10;;;5.33;;
23539;SDS011;11947;50.810;4.394;2022-10-22T22:54:22;18.13;;;5.20;;
23539;SDS011;11947;50.810;4.394;2022-10-22T22:56:49;19.35;;;5.15;;
23539;SDS011;11947;50.810;4.394;2022-10-22T22:59:25;19.33;;;4.75;;
23539;SDS011;11947;50.810;4.394;2022-10-22T23:01:53;14.52;;;5.10;;
23539;SDS011;11947;50.810;4.394;2022-10-22T23:04:29;16.20;;;5.13;;
23539;SDS011;11947;50.810;4.394;2022-10-22T23:06:56;19.15;;;4.88;;
23539;SDS011;11947;50.810;4.394;2022-10-22T23:09:24;15.90;;;4.55;;
23539;SDS011;11947;50.810;4.394;2022-10-22T23:11:52;11.95;;;4.47;;
23539;SDS011;11947;50.810;4.394;2022-10-22T23:14:20;14.68;;;4.72;;
23539;SDS011;11947;50.810;4.394;2022-10-22T23:16:49;20.17;;;5.22;;
23539;SDS011;11947;50.810;4.394;2022-10-22T23:19:18;15.70;;;4.50;;
23539;SDS011;11947;50.810;4.394;2022-10-22T23:21:49;17.05;;;4.70;;
23539;SDS011;11947;50.810;4.394;2022-10-22T23:24:18;15.18;;;4.60;;
23539;SDS011;11947;50.810;4.394;2022-10-22T23:26:54;17.58;;;4.72;;
23539;SDS011;11947;50.810;4.394;2022-10-22T23:29:41;14.50;;;4.68;;
23539;SDS011;11947;50.810;4.394;2022-10-22T23:32:12;13.70;;;4.22;;
23539;SDS011;11947;50.810;4.394;2022-10-22T23:34:38;18.27;;;4.82;;
23539;SDS011;11947;50.810;4.394;2022-10-22T23:37:06;13.30;;;4.53;;
23539;SDS011;11947;50.810;4.394;2022-10-22T23:39:34;13.20;;;4.43;;
23539;SDS011;11947;50.810;4.394;2022-10-22T23:42:03;10.38;;;3.70;;
23539;SDS011;11947;50.810;4.394;2022-10-22T23:44:30;12.20;;;3.75;;
23539;SDS011;11947;50.810;4.394;2022-10-22T23:46:56;8.02;;;3.67;;
23539;SDS011;11947;50.810;4.394;2022-10-22T23:49:22;11.65;;;3.60;;
23539;SDS011;11947;50.810;4.394;2022-10-22T23:51:50;8.77;;;3.40;;
23539;SDS011;11947;50.810;4.394;2022-10-22T23:54:17;10.45;;;4.13;;
23539;SDS011;11947;50.810;4.394;2022-10-22T23:56:43;7.22;;;3.30;;
23539;SDS011;11947;50.810;4.394;2022-10-22T23:59:16;9.43;;;2.90;;
